Time;durP1;ratioP1;P1;durP2;ratioP2;P2;SDS_P1;SDS_P2;PMS_P1;PMS_P2;Temp;Humidity;BMP_temperature;BMP_pressure;BME280_temperature;BME280_humidity;BME280_pressure;Samples;Min_cycle;Max_cycle;Signal;HPM_P1;HPM_P2
2024/01/26 00:04:20;;;;;;;15.77;11.40;;;;;;;10.09;100.00;101169.91;10429708;28;20753;-63
2024/01/26 00:09:22;;;;;;;14.40;10.48;;;;;;;10.05;100.00;101147.09;10428866;28;20044;-63
2024/01/26 00:14:24;;;;;;;18.33;13.50;;;;;;;10.11;100.00;101145.84;10428113;28;20931;-63
2024/01/26 00:19:25;;;;;;;17.20;14.15;;;;;;;10.08;100.00;101143.41;10430699;28;20219;-63
2024/01/26 00:24:27;;;;;;;18.85;14.50;;;;;;;10.08;100.00;101132.75;10431969;28;20110;-63
2024/01/26 00:29:28;;;;;;;16.98;14.15;;;;;;;10.12;100.00;101139.59;10433991;28;20090;-64
2024/01/26 00:34:29;;;;;;;16.42;13.43;;;;;;;10.08;100.00;101122.97;10430288;28;20841;-64
2024/01/26 00:39:31;;;;;;;16.65;14.00;;;;;;;10.11;100.00;101129.06;10410328;28;20048;-64
2024/01/26 00:44:33;;;;;;;16.65;12.30;;;;;;;10.03;100.00;101133.06;10431979;28;20052;-62
2024/01/26 00:49:34;;;;;;;17.60;13.88;;;;;;;9.99;100.00;101120.06;10427658;28;20095;-63
2024/01/26 00:54:49;;;;;;;;;;;;;;;10.01;100.00;101128.78;10432035;28;20165;-62
2024/01/26 00:59:51;;;;;;;16.30;13.23;;;;;;;10.08;100.00;101130.09;10421947;28;19920;-64
2024/01/26 01:04:52;;;;;;;15.63;13.30;;;;;;;10.03;100.00;101124.22;10432339;28;20056;-62
2024/01/26 01:09:56;;;;;;;17.13;15.17;;;;;;;10.01;100.00;101127.00;10422439;28;20144;-63
2024/01/26 01:14:58;;;;;;;17.40;14.27;;;;;;;10.08;100.00;101124.78;10424512;28;20278;-62
2024/01/26 01:20:00;;;;;;;17.58;14.93;;;;;;;10.09;100.00;101118.50;10439084;28;20044;-62
2024/01/26 01:25:01;;;;;;;17.88;14.90;;;;;;;10.09;100.00;101107.88;10410441;28;20044;-62
2024/01/26 01:30:05;;;;;;;17.85;14.52;;;;;;;10.12;100.00;101117.44;10438348;28;20056;-63
2024/01/26 01:35:08;;;;;;;19.20;14.45;;;;;;;10.06;100.00;101108.06;10399390;28;20100;-63
2024/01/26 01:40:10;;;;;;;18.08;13.82;;;;;;;10.04;100.00;101104.63;10423761;28;20066;-61
2024/01/26 01:45:14;;;;;;;17.65;14.77;;;;;;;10.01;100.00;101107.50;10437606;28;20168;-64
2024/01/26 01:50:16;;;;;;;15.07;13.40;;;;;;;10.03;100.00;101094.97;10437741;28;20451;-63
2024/01/26 01:55:18;;;;;;;16.95;14.50;;;;;;;9.93;100.00;101077.91;10437803;28;20052;-63
2024/01/26 02:00:19;;;;;;;16.02;14.32;;;;;;;10.02;100.00;101087.94;10428521;28;20052;-63
2024/01/26 02:05:23;;;;;;;16.20;14.27;;;;;;;10.08;100.00;101085.72;10395382;28;23109;-64
2024/01/26 02:10:25;;;;;;;18.15;14.20;;;;;;;9.98;100.00;101070.47;10436628;28;20041;-63
2024/01/26 02:15:26;;;;;;;17.13;15.07;;;;;;;10.01;100.00;101081.78;10433989;28;20574;-62
2024/01/26 02:20:27;;;;;;;18.38;16.38;;;;;;;9.99;100.00;101080.16;10434356;28;20138;-63
2024/01/26 02:25:47;;;;;;;18.80;16.02;;;;;;;9.93;100.00;101061.94;10432284;28;20064;-64
2024/01/26 02:30:49;;;;;;;18.85;14.40;;;;;;;9.89;100.00;101062.16;10432385;28;20098;-63
2024/01/26 02:35:50;;;;;;;18.02;14.77;;;;;;;9.87;100.00;101055.22;10431381;28;20096;-64
2024/01/26 02:40:51;;;;;;;18.15;14.88;;;;;;;9.94;100.00;101068.94;10432012;28;20064;-63
2024/01/26 02:45:53;;;;;;;19.23;15.82;;;;;;;9.99;100.00;101045.59;10433605;28;20056;-63
2024/01/26 02:50:55;;;;;;;16.92;14.52;;;;;;;10.04;100.00;101044.34;10407420;28;20080;-62
2024/01/26 02:55:57;;;;;;;18.90;16.55;;;;;;;10.03;100.00;101060.41;10432612;28;20494;-62
2024/01/26 03:00:58;;;;;;;19.42;16.23;;;;;;;9.99;100.00;101046.41;10431904;28;20052;-63
2024/01/26 03:06:02;;;;;;;19.57;16.47;;;;;;;9.98;100.00;101043.88;10431242;28;20053;-63
2024/01/26 03:11:05;;;;;;;18.67;15.20;;;;;;;10.00;100.00;101045.47;10419470;28;20254;-62
2024/01/26 03:16:07;;;;;;;17.88;14.65;;;;;;;10.00;100.00;101061.44;10432813;28;20412;-63
2024/01/26 03:21:08;;;;;;;17.52;14.70;;;;;;;10.06;100.00;101046.91;10434193;28;20047;-62
2024/01/26 03:26:10;;;;;;;18.27;14.27;;;;;;;10.09;100.00;101030.72;10410047;28;20127;-63
2024/01/26 03:31:13;;;;;;;18.05;15.18;;;;;;;10.11;100.00;101044.78;10424141;28;20041;-63
2024/01/26 03:36:15;;;;;;;18.63;15.40;;;;;;;10.16;100.00;101041.81;10414249;28;20213;-64
2024/01/26 03:41:17;;;;;;;19.65;14.77;;;;;;;10.21;100.00;101034.38;10429294;28;20056;-64
2024/01/26 03:46:20;;;;;;;16.63;13.63;;;;;;;10.24;100.00;101037.69;10404339;28;20075;-64
2024/01/26 03:51:21;;;;;;;16.88;14.15;;;;;;;10.22;100.00;101044.06;10430443;28;20080;-62
2024/01/26 03:56:22;;;;;;;15.95;14.25;;;;;;;10.26;100.00;101043.75;10429491;28;20154;-62
2024/01/26 04:01:24;;;;;;;17.45;14.30;;;;;;;10.30;100.00;101048.84;10429883;28;20057;-63
2024/01/26 04:06:25;;;;;;;15.60;13.02;;;;;;;10.29;100.00;101041.84;10431118;28;20048;-64
2024/01/26 04:11:27;;;;;;;16.63;12.77;;;;;;;10.36;100.00;101048.50;10434472;28;20064;-61
2024/01/26 04:16:28;;;;;;;14.07;11.90;;;;;;;10.36;100.00;101048.50;10414637;28;20044;-63
2024/01/26 04:21:30;;;;;;;14.23;12.35;;;;;;;10.39;100.00;101049.13;10411475;28;20275;-62
2024/01/26 04:26:31;;;;;;;13.20;11.27;;;;;;;10.43;100.00;101063.09;10409160;28;20052;-62
2024/01/26 04:31:43;;;;;;;13.52;11.45;;;;;;;10.23;100.00;101038.63;10423728;28;20126;-62
2024/01/26 04:36:46;;;;;;;15.50;12.52;;;;;;;10.33;100.00;101053.97;10415842;28;20677;-62
2024/01/26 04:41:49;;;;;;;13.50;11.32;;;;;;;10.38;100.00;101042.09;10432793;28;20053;-62
2024/01/26 04:46:53;;;;;;;13.90;11.80;;;;;;;10.38;100.00;101046.59;10435925;28;20656;-63
2024/01/26 04:51:54;;;;;;;15.80;12.60;;;;;;;10.37;100.00;101043.09;10437866;28;20063;-64
2024/01/26 04:56:56;;;;;;;13.50;12.07;;;;;;;10.42;100.00;101035.63;10415804;28;20045;-61
2024/01/26 05:01:57;;;;;;;12.52;11.25;;;;;;;10.41;100.00;101028.59;10437101;28;20076;-62
2024/01/26 05:06:58;;;;;;;14.40;12.52;;;;;;;10.40;100.00;101015.38;10431846;28;20056;-63
2024/01/26 05:12:00;;;;;;;14.88;11.98;;;;;;;10.34;100.00;101013.13;10434825;28;20048;-63
2024/01/26 05:17:03;;;;;;;15.10;11.93;;;;;;;10.36;100.00;101017.41;10436264;28;20037;-62
2024/01/26 05:22:05;;;;;;;14.52;11.40;;;;;;;10.40;100.00;101000.28;10420834;28;20203;-60
2024/01/26 05:27:07;;;;;;;13.43;10.85;;;;;;;10.44;100.00;101006.25;10416586;28;20072;-61
2024/01/26 05:32:08;;;;;;;14.18;11.25;;;;;;;10.48;100.00;100998.88;10439270;28;20060;-63
2024/01/26 05:37:11;;;;;;;12.93;10.98;;;;;;;10.48;100.00;100998.88;10419442;28;20060;-61
2024/01/26 05:42:13;;;;;;;12.68;10.38;;;;;;;10.33;100.00;101006.06;10437710;28;20056;-62
2024/01/26 05:47:14;;;;;;;10.65;9.55;;;;;;;10.25;100.00;101004.81;10437667;28;20060;-62
2024/01/26 05:52:19;;;;;;;;;;;;;;;10.29;100.00;101007.25;10421553;28;20155;-60
2024/01/26 05:57:21;;;;;;;12.30;9.38;;;;;;;10.36;100.00;101016.56;10436972;28;19971;-62
2024/01/26 06:02:22;;;;;;;10.30;9.35;;;;;;;10.31;100.00;101002.69;10400844;28;20053;-63
2024/01/26 06:07:26;;;;;;;9.73;8.73;;;;;;;10.32;100.00;101009.72;10406986;28;20458;-62
2024/01/26 06:12:27;;;;;;;10.13;9.13;;;;;;;10.27;100.00;100997.56;10432823;28;20518;-63
2024/01/26 06:17:28;;;;;;;9.43;8.52;;;;;;;10.28;100.00;100985.09;10403824;28;20048;-61
2024/01/26 06:22:30;;;;;;;8.55;7.60;;;;;;;10.30;100.00;100990.31;10413311;28;20238;-63
2024/01/26 06:27:32;;;;;;;9.85;8.23;;;;;;;10.29;100.00;100991.28;10434096;28;20040;-62
2024/01/26 06:32:34;;;;;;;8.57;7.72;;;;;;;10.28;100.00;100998.41;10435437;28;20057;-63
2024/01/26 06:37:36;;;;;;;7.63;6.88;;;;;;;10.25;100.00;100978.19;10410139;28;20048;-63
2024/01/26 06:42:42;;;;;;;8.18;5.88;;;;;;;10.24;100.00;100976.47;10411062;28;20055;-61
2024/01/26 06:47:43;;;;;;;7.07;5.82;;;;;;;10.35;100.00;100985.59;10437132;28;20052;-62
2024/01/26 06:52:45;;;;;;;5.97;4.90;;;;;;;10.34;100.00;100979.38;10420342;28;20048;-63
2024/01/26 06:57:48;;;;;;;6.28;5.10;;;;;;;10.35;100.00;100970.47;10401568;28;20183;-63
2024/01/26 07:02:49;;;;;;;5.50;4.68;;;;;;;10.32;100.00;100973.28;10433834;28;20075;-62
2024/01/26 07:07:51;;;;;;;5.80;4.57;;;;;;;10.32;100.00;100967.13;10433448;28;20052;-62
2024/01/26 07:12:53;;;;;;;4.55;4.15;;;;;;;10.31;100.00;100976.06;10425502;28;20175;-62
2024/01/26 07:17:54;;;;;;;4.70;4.20;;;;;;;10.36;100.00;100984.63;10409989;28;20053;-61
2024/01/26 07:22:56;;;;;;;3.92;3.20;;;;;;;10.29;100.00;100951.38;10405195;28;20048;-63
2024/01/26 07:28:07;;;;;;;4.03;3.58;;;;;;;10.36;100.00;100963.34;10386715;27;20977;-63
2024/01/26 07:33:09;;;;;;;6.43;3.78;;;;;;;10.31;100.00;100968.91;10394234;28;20052;-65
2024/01/26 07:38:11;;;;;;;3.58;3.25;;;;;;;10.26;100.00;100953.28;10392595;28;20068;-64
2024/01/26 07:43:12;;;;;;;4.43;3.35;;;;;;;10.32;100.00;100948.50;10395845;28;20541;-64
2024/01/26 07:48:16;;;;;;;4.22;3.22;;;;;;;10.31;100.00;100922.84;10393249;28;20119;-64
2024/01/26 07:53:18;;;;;;;3.40;3.13;;;;;;;10.33;100.00;100905.84;10373632;28;20137;-63
2024/01/26 07:58:19;;;;;;;3.80;3.40;;;;;;;10.40;100.00;100911.59;10392272;28;20057;-65
2024/01/26 08:03:21;;;;;;;2.75;2.55;;;;;;;10.39;100.00;100923.22;10394471;28;20584;-64
2024/01/26 08:08:22;;;;;;;3.75;2.75;;;;;;;10.39;100.00;100928.53;10405450;28;20506;-65
2024/01/26 08:13:24;;;;;;;2.75;2.35;;;;;;;10.44;100.00;100913.09;10386539;28;22475;-64
2024/01/26 08:18:26;;;;;;;4.70;3.28;;;;;;;10.44;100.00;100882.00;10388941;28;20065;-64
2024/01/26 08:23:28;;;;;;;3.63;3.13;;;;;;;10.44;100.00;100889.13;10384135;28;20075;-63
2024/01/26 08:28:29;;;;;;;3.40;3.10;;;;;;;10.42;100.00;100886.59;10385557;28;20584;-63
2024/01/26 08:33:31;;;;;;;3.47;3.17;;;;;;;10.40;100.00;100879.66;10386670;28;21128;-63
2024/01/26 08:38:32;;;;;;;4.22;3.35;;;;;;;10.42;100.00;100883.06;10372387;28;20984;-63
2024/01/26 08:43:34;;;;;;;4.03;3.35;;;;;;;10.24;100.00;100848.75;10362491;28;20084;-63
2024/01/26 08:48:36;;;;;;;6.20;3.80;;;;;;;10.35;100.00;100866.66;10359231;28;20049;-63
2024/01/26 08:53:38;;;;;;;4.65;3.60;;;;;;;10.32;100.00;100855.38;10356265;28;22134;-63
2024/01/26 08:58:41;;;;;;;9.45;7.88;;;;;;;10.21;100.00;100827.69;10356455;28;20960;-63
2024/01/26 09:03:43;;;;;;;7.32;6.63;;;;;;;10.37;100.00;100853.25;10350097;28;20653;-62
2024/01/26 09:08:44;;;;;;;5.93;4.35;;;;;;;10.39;100.00;100856.69;10356493;28;20057;-62
2024/01/26 09:13:46;;;;;;;6.57;4.38;;;;;;;10.29;100.00;100852.94;10368556;28;20057;-63
2024/01/26 09:18:47;;;;;;;6.72;5.40;;;;;;;10.26;100.00;100852.16;10360521;28;20187;-64
2024/01/26 09:23:49;;;;;;;7.47;4.60;;;;;;;10.17;100.00;100836.84;10365284;28;20052;-65
2024/01/26 09:28:51;;;;;;;5.05;4.57;;;;;;;10.18;100.00;100816.44;10360325;28;20246;-66
2024/01/26 09:33:52;;;;;;;5.90;5.30;;;;;;;10.14;100.00;100804.28;10364785;28;20041;-65
2024/01/26 09:38:54;;;;;;;5.18;4.32;;;;;;;10.26;100.00;100830.88;10378137;28;20051;-65
2024/01/26 09:43:56;;;;;;;5.88;4.88;;;;;;;10.22;100.00;100824.09;10422753;28;20045;-63
2024/01/26 09:48:57;;;;;;;6.30;5.30;;;;;;;10.19;100.00;100818.97;10358551;28;20084;-63
2024/01/26 09:54:00;;;;;;;6.95;4.53;;;;;;;10.30;100.00;100833.31;10358764;28;20053;-64
2024/01/26 09:59:03;;;;;;;4.32;3.78;;;;;;;10.30;100.00;100828.00;10370388;28;20052;-64
2024/01/26 10:04:05;;;;;;;5.05;3.30;;;;;;;10.28;100.00;100838.75;10354744;28;20091;-65
2024/01/26 10:09:08;;;;;;;3.88;3.47;;;;;;;10.27;100.00;100835.25;10347062;28;20053;-66
2024/01/26 10:14:20;;;;;;;3.97;3.10;;;;;;;10.28;100.00;100820.13;10356696;28;20057;-63
2024/01/26 10:19:25;;;;;;;4.13;3.50;;;;;;;10.31;100.00;100822.56;10353499;28;20065;-63
2024/01/26 10:24:28;;;;;;;4.53;3.60;;;;;;;10.30;100.00;100806.72;10399404;28;20125;-61
2024/01/26 10:29:31;;;;;;;4.78;4.30;;;;;;;10.23;100.00;100793.00;10350326;28;20341;-62
2024/01/26 10:34:34;;;;;;;4.47;3.00;;;;;;;10.18;100.00;100803.97;10362200;28;20516;-64
2024/01/26 10:39:37;;;;;;;4.63;3.33;;;;;;;10.23;100.00;100801.81;10355882;28;20064;-64
2024/01/26 10:44:39;;;;;;;4.55;3.40;;;;;;;10.22;100.00;100791.28;10355624;28;20049;-65
2024/01/26 10:49:42;;;;;;;3.30;3.00;;;;;;;10.25;100.00;100780.44;10351310;28;20053;-64
2024/01/26 10:54:49;;;;;;;5.00;2.97;;;;;;;10.35;100.00;100781.50;10366468;28;20117;-64
2024/01/26 10:59:50;;;;;;;4.85;3.28;;;;;;;10.31;100.00;100779.16;10335971;28;20107;-62
2024/01/26 11:04:52;;;;;;;34.35;30.90;;;;;;;10.41;100.00;100791.72;10344492;28;20132;-66
2024/01/26 11:10:01;;;;;;;3.67;3.28;;;;;;;10.38;100.00;100783.94;10359474;28;20048;-64
2024/01/26 11:15:06;;;;;;;5.25;3.35;;;;;;;10.49;100.00;100779.69;10353455;28;20045;-65
2024/01/26 11:20:14;;;;;;;4.10;3.20;;;;;;;10.53;100.00;100767.84;10376291;28;20251;-63
2024/01/26 11:25:21;;;;;;;4.40;3.67;;;;;;;10.52;100.00;100744.84;10398367;28;20056;-63
2024/01/26 11:30:24;;;;;;;7.20;6.10;;;;;;;10.59;100.00;100746.97;10385892;28;20045;-65
2024/01/26 11:35:26;;;;;;;4.72;3.20;;;;;;;10.60;100.00;100742.50;10366196;28;20788;-64
2024/01/26 11:40:30;;;;;;;5.82;3.20;;;;;;;10.67;100.00;100732.25;10371253;28;20114;-64
2024/01/26 11:45:45;;;;;;;3.05;2.85;;;;;;;10.71;100.00;100717.75;10359214;28;20104;-65
2024/01/26 11:50:48;;;;;;;2.88;2.38;;;;;;;10.72;100.00;100724.75;10408187;28;20502;-64
2024/01/26 11:55:52;;;;;;;3.33;3.03;;;;;;;10.83;100.00;100706.19;10363664;28;20571;-65
2024/01/26 12:00:55;;;;;;;2.63;2.28;;;;;;;10.92;100.00;100705.50;10345546;28;20057;-64
2024/01/26 12:05:57;;;;;;;4.45;2.30;;;;;;;10.93;100.00;100688.56;10353115;28;20135;-66
2024/01/26 12:11:01;;;;;;;2.30;1.85;;;;;;;11.04;100.00;100702.88;10364961;28;20057;-66
2024/01/26 12:16:05;;;;;;;5.53;3.17;;;;;;;11.07;100.00;100707.97;10360446;28;20180;-65
2024/01/26 12:21:08;;;;;;;1.83;1.63;;;;;;;11.10;100.00;100681.94;10370272;28;20720;-64
2024/01/26 12:26:11;;;;;;;6.25;5.45;;;;;;;11.11;100.00;100691.66;10378596;28;20057;-64
2024/01/26 12:31:15;;;;;;;8.65;5.70;;;;;;;11.12;100.00;100671.16;10357345;28;20056;-64
2024/01/26 12:36:17;;;;;;;2.40;1.60;;;;;;;11.20;100.00;100676.78;10360893;28;20054;-65
2024/01/26 12:41:19;;;;;;;17.40;13.95;;;;;;;11.25;100.00;100671.94;10360151;28;20437;-64
2024/01/26 12:46:22;;;;;;;3.22;2.38;;;;;;;11.30;100.00;100687.56;10350262;28;20045;-66
2024/01/26 12:51:23;;;;;;;2.25;1.65;;;;;;;11.30;100.00;100680.44;10390696;28;20057;-66
2024/01/26 12:56:27;;;;;;;1.70;1.00;;;;;;;11.30;100.00;100656.47;10392754;28;20605;-66
2024/01/26 13:01:29;;;;;;;1.85;1.00;;;;;;;11.55;100.00;100670.53;10426996;28;20041;-65
2024/01/26 13:06:33;;;;;;;1.27;0.60;;;;;;;11.59;100.00;100685.31;10401195;28;20052;-64
2024/01/26 13:11:35;;;;;;;1.13;0.50;;;;;;;11.60;100.00;100679.00;10377190;28;20057;-65
2024/01/26 13:16:40;;;;;;;1.07;0.30;;;;;;;11.58;100.00;100680.94;10354904;28;20056;-64
2024/01/26 13:21:41;;;;;;;0.95;0.30;;;;;;;11.67;100.00;100695.38;10363846;28;20367;-64
2024/01/26 13:26:44;;;;;;;0.50;0.28;;;;;;;11.66;100.00;100681.22;10364870;28;20050;-66
2024/01/26 13:31:47;;;;;;;0.60;0.30;;;;;;;11.76;100.00;100710.66;10369871;28;20190;-65
2024/01/26 13:36:48;;;;;;;1.05;0.35;;;;;;;11.72;100.00;100751.88;10368048;28;20053;-65
2024/01/26 13:41:50;;;;;;;0.63;0.10;;;;;;;11.76;100.00;100835.19;10359932;28;20080;-64
2024/01/26 13:46:52;;;;;;;1.75;0.32;;;;;;;11.41;100.00;100849.34;10359807;28;20469;-63
2024/01/26 13:51:53;;;;;;;1.88;0.30;;;;;;;11.12;100.00;100881.66;10361310;28;20049;-61
2024/01/26 13:56:56;;;;;;;2.45;0.47;;;;;;;10.87;94.85;100888.75;10356373;28;20056;-66
2024/01/26 14:01:59;;;;;;;2.15;0.80;;;;;;;10.85;95.19;100895.16;10357631;28;20053;-66
2024/01/26 14:07:01;;;;;;;8.98;5.07;;;;;;;10.87;95.95;100878.13;10341329;28;20197;-62
2024/01/26 14:12:03;;;;;;;2.53;1.20;;;;;;;11.35;90.51;100908.44;10360307;28;20100;-65
2024/01/26 14:17:06;;;;;;;6.93;4.15;;;;;;;11.41;86.41;100908.84;10360520;28;20054;-64
2024/01/26 14:22:10;;;;;;;2.17;1.23;;;;;;;11.32;87.61;100934.34;10356200;28;20060;-65
2024/01/26 14:27:12;;;;;;;3.20;1.17;;;;;;;11.16;81.79;100941.75;10357461;28;20127;-62
2024/01/26 14:32:14;;;;;;;4.50;0.75;;;;;;;11.32;84.61;100958.34;10351212;28;20053;-63
2024/01/26 14:37:15;;;;;;;5.15;2.72;;;;;;;11.42;79.91;100941.69;10360540;28;20053;-66
2024/01/26 14:42:19;;;;;;;3.10;0.70;;;;;;;11.68;79.23;100985.94;10355560;28;20062;-64
2024/01/26 14:47:20;;;;;;;1.88;0.38;;;;;;;11.60;74.18;100998.13;10354756;28;20056;-65
2024/01/26 14:52:22;;;;;;;2.75;0.50;;;;;;;12.08;73.78;101018.66;10360990;28;20057;-63
2024/01/26 14:57:25;;;;;;;3.30;0.60;;;;;;;14.35;66.58;101033.72;10355823;28;20055;-64
2024/01/26 15:02:27;;;;;;;1.77;0.60;;;;;;;17.68;49.51;101034.97;10369426;28;20080;-65
2024/01/26 15:07:29;;;;;;;6.32;0.82;;;;;;;18.85;42.14;101050.22;10356516;28;20053;-64
2024/01/26 15:12:33;;;;;;;1.83;0.30;;;;;;;20.05;41.60;101052.94;10350435;28;20214;-66
2024/01/26 15:17:34;;;;;;;1.45;0.30;;;;;;;18.96;42.11;101068.03;10353304;28;20053;-63
2024/01/26 15:22:36;;;;;;;1.90;0.40;;;;;;;16.74;46.06;101090.50;10357103;28;20049;-64
2024/01/26 15:27:38;;;;;;;3.90;1.00;;;;;;;13.08;49.67;101105.41;10350946;28;20050;-65
2024/01/26 15:32:39;;;;;;;2.65;0.80;;;;;;;12.28;52.50;101123.94;10358120;28;20684;-61
2024/01/26 15:37:42;;;;;;;2.10;0.65;;;;;;;11.91;51.91;101129.28;10355506;28;20526;-66
2024/01/26 15:42:44;;;;;;;2.47;0.40;;;;;;;11.29;53.12;101133.63;10364726;28;20504;-63
2024/01/26 15:47:47;;;;;;;2.45;0.40;;;;;;;10.87;53.80;101176.41;10358113;28;20703;-63
2024/01/26 15:52:48;;;;;;;3.05;0.68;;;;;;;10.71;54.06;101160.59;10347185;28;20064;-63
2024/01/26 15:57:50;;;;;;;3.65;1.08;;;;;;;10.35;53.26;101185.19;10365948;28;20496;-66
2024/01/26 16:02:52;;;;;;;2.55;0.98;;;;;;;10.12;53.71;101210.56;10360788;28;20583;-65
2024/01/26 16:07:54;;;;;;;1.50;0.30;;;;;;;10.04;54.74;101224.34;10368403;28;20195;-65
2024/01/26 16:12:55;;;;;;;4.38;1.00;;;;;;;9.96;53.46;101255.91;10346682;28;20064;-63
2024/01/26 16:17:57;;;;;;;4.40;0.80;;;;;;;9.78;54.53;101281.81;10358140;28;20054;-62
2024/01/26 16:22:58;;;;;;;2.05;0.40;;;;;;;9.65;55.89;101287.00;10360795;28;20053;-65
2024/01/26 16:28:00;;;;;;;3.20;0.60;;;;;;;9.70;57.95;101316.84;10353240;28;20053;-65
2024/01/26 16:33:02;;;;;;;2.30;0.63;;;;;;;9.59;56.81;101324.59;10362202;28;20476;-67
2024/01/26 16:38:04;;;;;;;6.43;0.93;;;;;;;9.38;57.57;101338.19;10363983;28;20427;-65
2024/01/26 16:43:05;;;;;;;4.28;0.77;;;;;;;9.46;58.34;101353.72;10358513;28;20118;-64
2024/01/26 16:48:07;;;;;;;3.22;0.90;;;;;;;9.64;58.99;101375.72;10369086;28;20084;-62
2024/01/26 16:53:09;;;;;;;5.18;1.17;;;;;;;9.50;58.89;101377.38;10375250;28;20056;-63
2024/01/26 16:58:10;;;;;;;2.20;0.82;;;;;;;9.38;61.32;101391.34;10370425;28;20051;-62
2024/01/26 17:03:11;;;;;;;2.03;0.80;;;;;;;9.47;59.17;101416.53;10363203;28;20063;-64
2024/01/26 17:08:13;;;;;;;3.88;1.27;;;;;;;9.19;60.57;101418.97;10396837;28;20056;-62
2024/01/26 17:13:14;;;;;;;5.07;1.02;;;;;;;9.35;60.19;101418.97;10422356;28;20240;-65
2024/01/26 17:18:16;;;;;;;2.45;0.80;;;;;;;9.28;60.87;101430.88;10406135;28;20139;-64
2024/01/26 17:23:17;;;;;;;4.28;1.08;;;;;;;9.40;61.14;101423.13;10397144;28;21032;-64
2024/01/26 17:28:19;;;;;;;4.07;1.08;;;;;;;9.05;61.71;101441.91;10330532;28;20053;-63
2024/01/26 17:33:20;;;;;;;5.30;1.10;;;;;;;8.75;61.36;101438.22;10382450;28;20144;-63
2024/01/26 17:38:22;;;;;;;4.38;1.30;;;;;;;8.54;62.19;101436.69;10358859;28;20045;-65
2024/01/26 17:43:23;;;;;;;2.47;0.77;;;;;;;8.54;62.47;101447.31;10354397;28;20128;-65
2024/01/26 17:48:27;;;;;;;4.43;0.88;;;;;;;8.88;63.51;101488.00;10354140;28;20626;-63
2024/01/26 17:53:29;;;;;;;14.43;6.57;;;;;;;9.17;62.71;101489.94;10344678;28;20058;-64
2024/01/26 17:58:31;;;;;;;3.35;1.20;;;;;;;9.37;62.40;101525.19;10343058;28;20053;-64
2024/01/26 18:03:32;;;;;;;6.75;1.92;;;;;;;9.42;60.64;101541.72;10347868;28;20057;-64
2024/01/26 18:08:34;;;;;;;5.20;1.00;;;;;;;9.47;60.48;101560.94;10356218;28;20172;-65
2024/01/26 18:13:35;;;;;;;4.57;1.13;;;;;;;9.44;60.79;101569.06;10366659;28;20050;-64
2024/01/26 18:18:38;;;;;;;7.05;1.08;;;;;;;9.10;58.92;101594.81;10354064;28;20049;-65
2024/01/26 18:23:42;;;;;;;2.95;1.25;;;;;;;9.17;61.08;101584.69;10358733;28;20487;-63
2024/01/26 18:28:44;;;;;;;5.93;1.88;;;;;;;9.20;60.44;101580.09;10365069;28;20920;-63
2024/01/26 18:33:46;;;;;;;4.63;1.63;;;;;;;9.40;60.79;101604.72;10390369;28;20107;-63
2024/01/26 18:38:53;;;;;;;4.50;1.50;;;;;;;9.49;61.09;101590.94;10353176;28;20057;-64
2024/01/26 18:43:56;;;;;;;5.38;1.58;;;;;;;9.32;59.37;101615.78;10333662;28;20234;-66
2024/01/26 18:48:58;;;;;;;4.47;1.55;;;;;;;9.40;59.93;101631.31;10371949;28;20068;-66
2024/01/26 18:54:02;;;;;;;7.97;1.58;;;;;;;9.49;59.70;101651.22;10363293;28;20379;-64
2024/01/26 18:59:07;;;;;;;6.63;1.75;;;;;;;9.67;61.71;101647.56;10351771;28;20466;-66
2024/01/26 19:04:11;;;;;;;3.88;1.20;;;;;;;9.55;59.63;101665.03;10356165;28;20396;-64
2024/01/26 19:09:13;;;;;;;6.35;1.67;;;;;;;9.46;57.51;101668.19;10360272;28;20156;-65
2024/01/26 19:14:15;;;;;;;5.15;1.23;;;;;;;8.97;57.94;101676.06;10337866;28;20477;-64
2024/01/26 19:19:17;;;;;;;4.85;1.55;;;;;;;9.00;60.36;101684.72;10355177;28;20053;-65
2024/01/26 19:24:18;;;;;;;4.10;1.20;;;;;;;8.97;61.70;101679.56;10343427;28;20196;-65
2024/01/26 19:29:22;;;;;;;5.07;1.60;;;;;;;9.09;61.20;101686.03;10346567;28;20074;-64
2024/01/26 19:34:25;;;;;;;7.80;1.85;;;;;;;8.97;59.86;101681.38;10370471;28;21068;-63
2024/01/26 19:39:28;;;;;;;;;;;;;;;8.92;61.81;101686.06;10354292;28;20137;-65
2024/01/26 19:44:30;;;;;;;4.53;2.13;;;;;;;8.94;61.00;101684.19;10361434;28;19921;-64
2024/01/26 19:49:32;;;;;;;4.28;1.67;;;;;;;9.09;61.24;101691.34;10357817;28;20217;-65
2024/01/26 19:54:34;;;;;;;5.40;1.88;;;;;;;9.12;61.54;101677.91;10386375;28;20053;-64
2024/01/26 19:59:35;;;;;;;6.60;2.22;;;;;;;9.26;59.99;101703.75;10354739;28;20113;-66
2024/01/26 20:04:36;;;;;;;4.95;1.45;;;;;;;9.19;60.71;101716.53;10353880;28;20072;-64
2024/01/26 20:09:38;;;;;;;5.15;1.20;;;;;;;8.97;60.61;101718.56;10337768;28;20568;-65
2024/01/26 20:14:40;;;;;;;4.18;1.50;;;;;;;9.09;59.85;101731.19;10348953;28;20053;-67
2024/01/26 20:19:42;;;;;;;3.75;1.23;;;;;;;8.97;60.55;101716.75;10345633;28;20079;-65
2024/01/26 20:24:44;;;;;;;4.40;1.70;;;;;;;9.07;60.17;101721.59;10376736;28;20048;-65
2024/01/26 20:29:46;;;;;;;5.28;2.00;;;;;;;8.95;59.93;101717.78;10354634;28;20508;-66
2024/01/26 20:34:51;;;;;;;4.60;1.42;;;;;;;8.80;58.99;101744.16;10358431;28;20041;-66
2024/01/26 20:39:53;;;;;;;7.72;2.15;;;;;;;8.73;59.79;101749.84;10392940;28;20080;-64
2024/01/26 20:44:54;;;;;;;4.95;1.42;;;;;;;8.37;60.41;101761.25;10357446;28;20852;-66
2024/01/26 20:49:56;;;;;;;5.85;2.10;;;;;;;8.37;61.57;101770.06;10355628;28;20141;-65
2024/01/26 20:54:58;;;;;;;8.18;2.75;;;;;;;8.71;60.91;101783.56;10356174;28;20045;-65
2024/01/26 20:59:59;;;;;;;5.22;1.80;;;;;;;8.84;60.38;101774.06;10356879;28;20243;-66
2024/01/26 21:05:01;;;;;;;6.80;2.95;;;;;;;8.83;60.90;101778.53;10354392;28;20115;-65
2024/01/26 21:10:03;;;;;;;4.93;1.73;;;;;;;8.72;60.86;101785.28;10353541;28;20051;-66
2024/01/26 21:15:05;;;;;;;4.05;1.90;;;;;;;8.70;60.76;101795.97;10360302;28;20061;-65
2024/01/26 21:20:07;;;;;;;5.78;1.80;;;;;;;8.74;59.90;101802.03;10382527;28;20752;-66
2024/01/26 21:25:09;;;;;;;4.60;1.55;;;;;;;8.62;60.18;101806.97;10364035;28;20161;-67
2024/01/26 21:30:11;;;;;;;3.88;2.25;;;;;;;8.28;60.24;101765.19;10357483;28;20088;-66
2024/01/26 21:35:13;;;;;;;3.95;1.58;;;;;;;8.62;60.31;101814.06;10354247;28;20128;-65
2024/01/26 21:40:14;;;;;;;3.72;1.67;;;;;;;8.73;59.14;101830.34;10359907;28;20060;-63
2024/01/26 21:45:17;;;;;;;4.47;1.48;;;;;;;8.63;58.66;101824.63;10357897;28;20049;-62
2024/01/26 21:50:20;;;;;;;6.05;1.40;;;;;;;8.34;58.69;101836.53;10356584;28;20515;-64
2024/01/26 21:55:22;;;;;;;5.25;1.65;;;;;;;8.41;58.59;101840.66;10355331;28;20062;-63
2024/01/26 22:00:24;;;;;;;7.47;1.90;;;;;;;8.51;58.82;101848.22;10392291;28;20104;-64
2024/01/26 22:05:26;;;;;;;4.55;1.30;;;;;;;8.58;58.73;101842.53;10373676;28;20057;-64
2024/01/26 22:10:27;;;;;;;4.88;1.52;;;;;;;8.71;59.52;101852.56;10357103;28;20069;-63
2024/01/26 22:15:28;;;;;;;6.75;2.47;;;;;;;8.82;58.72;101856.44;10359498;28;20061;-61
2024/01/26 22:20:30;;;;;;;7.18;2.50;;;;;;;8.89;59.56;101861.47;10357271;28;20092;-62
2024/01/26 22:25:32;;;;;;;5.57;2.05;;;;;;;8.53;60.05;101851.63;10369867;28;20132;-63
2024/01/26 22:30:33;;;;;;;6.75;2.50;;;;;;;8.54;59.89;101869.31;10383659;28;20655;-62
2024/01/26 22:35:34;;;;;;;5.35;2.78;;;;;;;8.58;62.35;101868.22;10399842;28;20048;-65
2024/01/26 22:40:36;;;;;;;6.90;2.42;;;;;;;8.79;61.49;101866.38;10397542;28;20148;-62
2024/01/26 22:45:37;;;;;;;6.68;2.33;;;;;;;8.89;61.27;101872.09;10390527;28;20068;-64
2024/01/26 22:50:40;;;;;;;7.22;3.03;;;;;;;8.98;61.32;101882.28;10352174;28;20170;-61
2024/01/26 22:55:43;;;;;;;4.78;2.50;;;;;;;8.85;62.47;101893.47;10363408;28;20045;-62
2024/01/26 23:00:45;;;;;;;7.57;2.63;;;;;;;8.88;61.47;101888.97;10354757;28;20083;-62